Time;durP1;ratioP1;P1;durP2;ratioP2;P2;SDS_P1;SDS_P2;PMS_P1;PMS_P2;Temp;Humidity;BMP_temperature;BMP_pressure;BME280_temperature;BME280_humidity;BME280_pressure;Samples;Min_cycle;Max_cycle;Signal;HPM_P1;HPM_P2
2022/04/17 00:00:34;;;;;;;19.70;5.50;;;;;;;2.07;62.39;101775.77;105697;1272;22560;-60
2022/04/17 00:03:11;;;;;;;22.80;6.50;;;;;;;2.02;62.55;101771.25;105814;1271;24532;-61
2022/04/17 00:05:42;;;;;;;23.60;6.30;;;;;;;1.97;62.56;101770.66;105617;1271;24236;-59
2022/04/17 00:08:14;;;;;;;24.40;6.40;;;;;;;1.93;62.60;101768.36;105897;1271;25607;-59
2022/04/17 00:10:47;;;;;;;20.40;6.50;;;;;;;1.87;62.62;101761.48;106052;1271;22571;-59
2022/04/17 00:13:19;;;;;;;20.20;6.20;;;;;;;1.83;62.64;101762.55;105663;1271;22538;-59
2022/04/17 00:15:51;;;;;;;23.00;5.60;;;;;;;1.77;62.78;101759.83;105705;1271;22549;-59
2022/04/17 00:18:24;;;;;;;19.70;5.70;;;;;;;1.74;62.83;101756.10;105795;1271;25344;-59
2022/04/17 00:20:55;;;;;;;20.50;5.00;;;;;;;1.70;62.86;101762.14;105808;1271;24352;-59
2022/04/17 00:23:26;;;;;;;20.70;4.80;;;;;;;1.67;62.98;101760.61;105823;1271;22535;-59
2022/04/17 00:25:58;;;;;;;19.10;5.00;;;;;;;1.62;63.13;101760.96;105814;1271;22525;-60
2022/04/17 00:28:30;;;;;;;22.30;6.10;;;;;;;1.58;63.08;101759.61;105619;1271;22672;-59
2022/04/17 00:31:01;;;;;;;22.50;5.60;;;;;;;1.53;63.24;101760.98;105769;1271;22556;-59
2022/04/17 00:33:33;;;;;;;18.90;5.70;;;;;;;1.50;63.24;101764.26;105749;1271;24366;-58
2022/04/17 00:36:05;;;;;;;20.10;5.60;;;;;;;1.45;63.18;101759.97;105955;1271;24958;-59
2022/04/17 00:38:36;;;;;;;23.60;6.40;;;;;;;1.43;63.27;101756.34;105828;1271;22532;-58
2022/04/17 00:41:08;;;;;;;17.00;4.90;;;;;;;1.42;63.35;101759.08;105883;1271;24153;-60
2022/04/17 00:43:46;;;;;;;23.20;6.20;;;;;;;1.39;63.32;101758.58;105903;1271;24288;-59
2022/04/17 00:46:18;;;;;;;23.00;5.50;;;;;;;1.35;63.36;101761.77;105703;1271;25475;-59
2022/04/17 00:48:49;;;;;;;18.30;5.60;;;;;;;1.33;63.50;101760.50;105750;1271;22568;-59
2022/04/17 00:51:21;;;;;;;20.20;6.10;;;;;;;1.29;63.54;101758.34;105938;1272;25647;-59
2022/04/17 00:53:53;;;;;;;20.90;5.80;;;;;;;1.27;63.61;101757.06;106054;1271;22586;-60
2022/04/17 00:56:27;;;;;;;18.60;4.80;;;;;;;1.25;63.72;101754.61;105893;1271;22548;-59
2022/04/17 00:58:59;;;;;;;20.10;5.80;;;;;;;1.24;63.80;101750.90;105968;1271;24258;-60
2022/04/17 01:01:32;;;;;;;19.70;4.70;;;;;;;1.21;63.71;101749.69;105961;1271;22730;-60
2022/04/17 01:04:04;;;;;;;22.90;5.20;;;;;;;1.21;63.83;101749.07;105673;1271;22550;-59
2022/04/17 01:06:38;;;;;;;20.10;5.60;;;;;;;1.20;63.81;101750.79;105743;1271;23661;-58
2022/04/17 01:09:11;;;;;;;17.70;4.90;;;;;;;1.16;63.81;101743.84;105807;1271;24879;-60
2022/04/17 01:11:44;;;;;;;18.30;5.30;;;;;;;1.15;63.85;101743.04;105824;1271;22521;-61
2022/04/17 01:14:16;;;;;;;21.70;5.10;;;;;;;1.16;64.09;101743.83;105845;1271;24756;-59
2022/04/17 01:16:47;;;;;;;21.80;5.10;;;;;;;1.21;64.06;101748.20;105690;1272;22544;-59
2022/04/17 01:19:19;;;;;;;21.40;6.10;;;;;;;1.21;64.18;101742.46;105653;1271;24330;-59
2022/04/17 01:21:50;;;;;;;18.50;5.80;;;;;;;1.19;64.19;101738.66;105608;1272;22534;-59
2022/04/17 01:27:17;;;;;;;20.90;6.00;;;;;;;1.15;64.26;101737.23;105262;1278;24280;-59
2022/04/17 01:29:50;;;;;;;19.50;5.30;;;;;;;1.12;64.23;101736.25;105424;1278;24726;-59
2022/04/17 01:32:24;;;;;;;19.20;5.10;;;;;;;1.11;64.34;101738.21;105408;1278;22630;-59
2022/04/17 01:34:55;;;;;;;16.70;4.30;;;;;;;1.08;64.38;101737.47;105403;1278;22616;-59
2022/04/17 01:37:26;;;;;;;20.20;6.10;;;;;;;1.06;64.48;101737.20;105371;1277;25631;-61
2022/04/17 01:39:58;;;;;;;21.00;5.60;;;;;;;1.02;64.45;101735.27;105353;1278;24281;-62
2022/04/17 01:42:30;;;;;;;17.80;5.20;;;;;;;0.98;64.56;101737.99;105163;1278;24252;-60
2022/04/17 01:45:01;;;;;;;17.20;4.90;;;;;;;0.93;64.76;101736.85;105293;1278;22605;-58
2022/04/17 01:47:33;;;;;;;22.10;4.80;;;;;;;0.90;64.70;101739.23;105173;1278;24455;-59
2022/04/17 01:50:05;;;;;;;20.10;4.80;;;;;;;0.89;64.68;101737.04;105312;1278;22538;-59
2022/04/17 01:52:36;;;;;;;19.00;4.00;;;;;;;0.87;64.83;101737.80;105255;1278;24275;-59
2022/04/17 01:55:09;;;;;;;19.80;4.30;;;;;;;0.86;64.92;101735.67;105306;1278;23914;-60
2022/04/17 01:57:41;;;;;;;15.70;4.20;;;;;;;0.84;64.93;101733.69;105334;1278;22732;-58
2022/04/17 02:00:14;;;;;;;20.40;5.30;;;;;;;0.80;64.88;101731.45;105223;1278;24337;-59
2022/04/17 02:02:45;;;;;;;17.40;5.00;;;;;;;0.77;64.92;101725.05;105263;1278;22642;-59
2022/04/17 02:05:17;;;;;;;18.30;4.20;;;;;;;0.75;64.98;101718.13;105448;1272;22644;-57
2022/04/17 02:07:48;;;;;;;17.80;4.80;;;;;;;0.73;65.00;101716.68;105792;1272;22607;-58
2022/04/17 02:10:21;;;;;;;17.50;4.20;;;;;;;0.73;65.06;101713.93;105722;1271;24319;-61
2022/04/17 02:12:52;;;;;;;15.30;4.00;;;;;;;0.72;65.02;101711.33;105731;1272;22739;-61
2022/04/17 02:15:24;;;;;;;19.30;5.00;;;;;;;0.71;65.04;101710.86;105765;1271;25357;-62
2022/04/17 02:17:56;;;;;;;15.90;3.50;;;;;;;0.70;65.11;101712.57;106238;1271;26526;-59
2022/04/17 02:20:29;;;;;;;19.30;4.70;;;;;;;0.69;65.16;101711.38;105882;1271;23061;-59
2022/04/17 02:23:00;;;;;;;17.70;4.30;;;;;;;0.67;65.24;101713.33;105960;1271;24323;-60
2022/04/17 02:25:32;;;;;;;19.60;4.80;;;;;;;0.63;65.34;101709.60;105705;1272;22569;-59
2022/04/17 02:28:04;;;;;;;16.50;5.10;;;;;;;0.59;65.40;101705.55;105591;1272;24327;-58
2022/04/17 02:30:35;;;;;;;18.60;3.50;;;;;;;0.57;65.50;101707.64;105683;1271;22560;-60
2022/04/17 02:33:07;;;;;;;18.10;4.50;;;;;;;0.56;65.40;101708.58;105584;1272;25612;-59
2022/04/17 02:35:38;;;;;;;16.80;4.20;;;;;;;0.56;65.42;101709.75;105573;1271;23861;-58
2022/04/17 02:38:10;;;;;;;19.20;5.20;;;;;;;0.53;65.49;101706.34;105684;1272;24295;-58
2022/04/17 02:40:42;;;;;;;18.00;4.60;;;;;;;0.51;65.53;101708.83;105958;1271;22899;-59
2022/04/17 02:43:14;;;;;;;14.50;3.80;;;;;;;0.48;65.51;101707.38;105684;1271;22533;-59
2022/04/17 02:45:45;;;;;;;16.40;4.10;;;;;;;0.45;65.74;101710.80;105629;1271;24329;-59
2022/04/17 02:48:17;;;;;;;14.90;4.10;;;;;;;0.42;65.64;101712.73;105734;1272;23202;-59
2022/04/17 02:50:48;;;;;;;15.40;3.10;;;;;;;0.40;65.83;101715.54;105661;1271;24273;-59
2022/04/17 02:53:21;;;;;;;17.20;4.00;;;;;;;0.38;66.01;101716.69;105627;1271;22553;-58
2022/04/17 02:55:53;;;;;;;15.80;3.40;;;;;;;0.39;65.83;101715.91;105718;1272;25512;-58
2022/04/17 02:58:24;;;;;;;20.70;4.50;;;;;;;0.35;65.88;101719.08;105608;1271;22531;-59
2022/04/17 03:06:35;;;;;;;16.30;4.20;;;;;;;0.29;66.09;101721.75;105537;1271;24332;-59
2022/04/17 03:09:06;;;;;;;17.70;3.70;;;;;;;0.27;66.16;101724.95;105732;1272;24446;-58
2022/04/17 03:11:37;;;;;;;14.30;3.40;;;;;;;0.23;66.50;101731.40;105621;1271;26028;-59
2022/04/17 03:14:09;;;;;;;13.90;3.70;;;;;;;0.22;66.67;101731.85;105547;1272;23061;-59
2022/04/17 03:16:41;;;;;;;14.60;3.70;;;;;;;0.22;66.67;101735.94;105669;1272;25601;-59
2022/04/17 03:19:13;;;;;;;13.40;4.30;;;;;;;0.22;66.71;101739.47;105703;1271;25387;-60
2022/04/17 03:21:44;;;;;;;17.00;3.60;;;;;;;0.20;66.61;101738.90;105687;1271;22667;-59
2022/04/17 03:24:15;;;;;;;13.30;4.40;;;;;;;0.17;66.88;101735.01;105728;1271;22830;-58
2022/04/17 03:26:47;;;;;;;16.50;3.90;;;;;;;0.16;66.86;101738.30;105602;1271;24935;-59
2022/04/17 03:29:18;;;;;;;14.50;3.70;;;;;;;0.13;66.93;101738.66;105825;1271;22553;-58
2022/04/17 03:31:50;;;;;;;17.80;3.80;;;;;;;0.12;66.81;101735.90;105824;1271;22532;-59
2022/04/17 03:34:21;;;;;;;15.10;3.00;;;;;;;0.12;66.77;101740.52;105779;1271;22537;-58
2022/04/17 03:36:52;;;;;;;15.60;4.70;;;;;;;0.10;66.83;101737.43;105883;1272;22533;-59
2022/04/17 03:39:24;;;;;;;15.10;3.20;;;;;;;0.08;66.95;101734.34;105878;1272;23064;-58
2022/04/17 03:41:57;;;;;;;16.90;4.00;;;;;;;0.06;67.03;101734.00;105712;1271;25362;-58
2022/04/17 03:44:31;;;;;;;18.00;5.40;;;;;;;0.04;67.13;101734.21;105893;1272;22777;-58
2022/04/17 03:47:02;;;;;;;23.30;6.00;;;;;;;0.01;67.29;101732.99;105686;1271;26667;-58
2022/04/17 03:49:34;;;;;;;22.20;5.90;;;;;;;-0.02;67.53;101730.20;105899;1271;25446;-56
2022/04/17 03:52:07;;;;;;;24.00;6.80;;;;;;;-0.04;67.66;101733.16;105831;1271;25015;-57
2022/04/17 03:54:38;;;;;;;24.60;7.10;;;;;;;-0.06;67.46;101731.02;105841;1271;22561;-59
2022/04/17 03:57:10;;;;;;;27.40;6.80;;;;;;;-0.06;67.81;101738.39;105949;1272;25310;-58
2022/04/17 03:59:41;;;;;;;21.50;6.70;;;;;;;-0.07;67.85;101740.80;105783;1272;25585;-59
2022/04/17 04:02:13;;;;;;;19.30;5.40;;;;;;;-0.07;68.02;101738.44;105680;1271;23086;-57
2022/04/17 04:04:45;;;;;;;23.30;7.30;;;;;;;-0.09;68.06;101735.68;105995;1271;22528;-59
2022/04/17 04:07:16;;;;;;;20.70;6.20;;;;;;;-0.09;68.21;101738.58;105722;1271;22530;-58
2022/04/17 04:09:48;;;;;;;27.50;7.00;;;;;;;-0.09;68.25;101740.39;105655;1271;22526;-59
2022/04/17 04:12:19;;;;;;;24.00;7.40;;;;;;;-0.07;68.47;101738.13;105624;1272;24228;-56
2022/04/17 04:14:51;;;;;;;23.70;7.40;;;;;;;-0.05;68.76;101740.44;105672;1272;22951;-60
2022/04/17 04:17:22;;;;;;;21.50;7.30;;;;;;;-0.04;68.73;101744.92;105935;1271;22776;-58
2022/04/17 04:19:54;;;;;;;23.10;7.20;;;;;;;-0.00;68.86;101744.89;105815;1271;22693;-58
2022/04/17 04:22:25;;;;;;;34.10;8.10;;;;;;;0.03;68.86;101744.06;105733;1271;24265;-57
2022/04/17 04:24:58;;;;;;;21.20;7.30;;;;;;;0.05;68.89;101739.70;105848;1271;22683;-58
2022/04/17 04:30:21;;;;;;;21.50;7.40;;;;;;;0.12;69.15;101739.66;105865;1271;22526;-59
2022/04/17 04:32:57;;;;;;;21.10;7.80;;;;;;;0.16;69.15;101739.31;106056;1271;22828;-59
2022/04/17 04:35:29;;;;;;;26.80;8.20;;;;;;;0.21;69.18;101740.09;105864;1271;24430;-59
2022/04/17 04:38:01;;;;;;;26.00;8.20;;;;;;;0.25;69.22;101738.09;105924;1271;23964;-59
2022/04/17 04:40:33;;;;;;;25.70;7.80;;;;;;;0.29;69.10;101739.23;105834;1272;22708;-60
2022/04/17 04:43:05;;;;;;;21.00;7.80;;;;;;;0.33;69.16;101736.55;105797;1271;22555;-61
2022/04/17 04:51:11;;;;;;;20.10;8.20;;;;;;;0.46;69.41;101734.27;105939;1272;22541;-61
2022/04/17 04:53:43;;;;;;;23.50;9.20;;;;;;;0.52;69.29;101736.39;105813;1272;23013;-59
2022/04/17 04:56:15;;;;;;;25.60;8.20;;;;;;;0.56;69.53;101731.49;105933;1271;25687;-59
2022/04/17 04:58:47;;;;;;;26.90;8.40;;;;;;;0.62;69.75;101734.77;105752;1272;24230;-59
2022/04/17 05:01:19;;;;;;;23.20;8.10;;;;;;;0.67;69.84;101734.54;105814;1271;22562;-58
2022/04/17 05:03:51;;;;;;;25.20;9.00;;;;;;;0.74;70.00;101737.20;105910;1272;25386;-58
2022/04/17 05:06:22;;;;;;;26.30;8.60;;;;;;;0.83;70.06;101736.98;105756;1272;22562;-56
2022/04/17 05:08:53;;;;;;;23.50;7.00;;;;;;;0.90;70.17;101738.94;105666;1272;25409;-57
2022/04/17 05:11:25;;;;;;;25.10;7.80;;;;;;;0.99;70.15;101739.98;105625;1271;22523;-57
2022/04/17 05:13:57;;;;;;;22.10;7.30;;;;;;;1.09;70.17;101735.12;105635;1271;22540;-58
2022/04/17 05:16:29;;;;;;;25.50;9.60;;;;;;;1.20;70.27;101734.13;105656;1272;25492;-58
2022/04/17 05:21:47;;;;;;;24.40;8.00;;;;;;;1.40;70.08;101733.35;105631;1272;23180;-57
2022/04/17 05:24:18;;;;;;;23.70;7.80;;;;;;;1.47;70.02;101734.12;105752;1271;22535;-59
2022/04/17 05:26:50;;;;;;;23.90;8.20;;;;;;;1.54;70.06;101735.98;105670;1271;22548;-58
2022/04/17 05:29:22;;;;;;;18.90;6.80;;;;;;;1.62;69.95;101737.46;105601;1272;22717;-57
2022/04/17 05:31:53;;;;;;;22.20;6.30;;;;;;;1.72;69.82;101739.26;105650;1272;22763;-56
2022/04/17 05:34:24;;;;;;;18.20;5.50;;;;;;;1.79;69.69;101737.89;105537;1272;22696;-55
2022/04/17 05:36:56;;;;;;;20.90;5.60;;;;;;;1.89;69.58;101739.14;105696;1272;24117;-57
2022/04/17 05:39:29;;;;;;;19.90;5.40;;;;;;;1.99;69.38;101740.14;106660;1271;25370;-55
2022/04/17 05:42:02;;;;;;;19.80;6.40;;;;;;;2.08;69.30;101737.06;105636;1272;25371;-58
2022/04/17 05:44:34;;;;;;;18.90;5.20;;;;;;;2.19;69.23;101734.11;105736;1271;22540;-57
2022/04/17 05:47:06;;;;;;;20.50;5.20;;;;;;;2.27;69.26;101735.98;105795;1271;22569;-58
2022/04/17 05:49:38;;;;;;;17.10;5.00;;;;;;;2.35;69.07;101734.44;105715;1273;22553;-58
2022/04/17 05:52:10;;;;;;;17.90;4.80;;;;;;;2.42;68.98;101735.73;105668;1271;22581;-59
2022/04/17 05:54:43;;;;;;;18.30;4.10;;;;;;;2.50;69.17;101736.39;105579;1271;25540;-59
2022/04/17 05:57:15;;;;;;;16.30;5.30;;;;;;;2.60;69.24;101734.85;105654;1271;22525;-58
2022/04/17 05:59:47;;;;;;;16.30;4.60;;;;;;;2.71;69.35;101737.95;105447;1271;25460;-56
2022/04/17 06:02:19;;;;;;;14.90;4.30;;;;;;;2.83;68.75;101738.23;106311;1271;22571;-61
2022/04/17 06:04:51;;;;;;;13.80;3.50;;;;;;;2.91;68.71;101736.43;105788;1271;22544;-60
2022/04/17 06:07:29;;;;;;;14.50;3.50;;;;;;;3.01;68.59;101736.36;105439;1272;25263;-58
2022/04/17 06:10:03;;;;;;;14.50;3.40;;;;;;;3.10;68.39;101739.70;105737;1272;23040;-59
2022/04/17 06:12:35;;;;;;;13.20;2.40;;;;;;;3.17;68.35;101739.40;105739;1271;22703;-58
2022/04/17 06:15:10;;;;;;;13.60;2.50;;;;;;;3.27;67.90;101743.10;105673;1271;22567;-58
2022/04/17 06:17:43;;;;;;;13.70;2.70;;;;;;;3.36;67.33;101742.88;105519;1271;23178;-58
2022/04/17 06:20:16;;;;;;;11.30;2.40;;;;;;;3.45;67.14;101736.17;105679;1272;22551;-60
2022/04/17 06:22:47;;;;;;;9.50;1.80;;;;;;;3.51;66.74;101736.26;105817;1271;22646;-56
2022/04/17 06:25:18;;;;;;;10.40;1.80;;;;;;;3.56;66.65;101737.52;105559;1271;22541;-58
2022/04/17 06:27:50;;;;;;;10.00;2.20;;;;;;;3.62;66.30;101733.40;105627;1271;25344;-59
2022/04/17 06:30:23;;;;;;;12.00;3.20;;;;;;;3.69;66.72;101734.52;106164;1271;22552;-58
2022/04/17 06:32:54;;;;;;;11.90;2.20;;;;;;;3.76;66.89;101735.76;105696;1271;22550;-59
2022/04/17 06:35:26;;;;;;;9.30;1.80;;;;;;;3.84;66.46;101740.23;105670;1271;25572;-59
2022/04/17 06:37:59;;;;;;;9.80;1.90;;;;;;;3.90;65.85;101738.42;105868;1271;22567;-57
2022/04/17 06:40:33;;;;;;;9.70;2.30;;;;;;;3.95;65.61;101737.55;105582;1271;22533;-59
2022/04/17 06:43:07;;;;;;;11.10;2.80;;;;;;;4.02;65.73;101734.45;105652;1271;24258;-60
2022/04/17 06:45:40;;;;;;;10.70;2.00;;;;;;;4.08;65.42;101733.02;105545;1271;22523;-58
2022/04/17 06:48:16;;;;;;;9.20;2.00;;;;;;;4.16;65.32;101734.50;105881;1271;25361;-60
2022/04/17 06:50:49;;;;;;;12.40;2.00;;;;;;;4.21;65.20;101731.08;105662;1271;26026;-58
2022/04/17 06:53:21;;;;;;;9.90;1.90;;;;;;;4.26;65.13;101725.30;105633;1271;23086;-59
2022/04/17 06:55:53;;;;;;;11.70;2.30;;;;;;;4.32;65.23;101726.30;105738;1272;22562;-56
2022/04/17 06:58:25;;;;;;;8.90;2.00;;;;;;;4.38;65.18;101721.16;105596;1271;24443;-59
2022/04/17 07:00:57;;;;;;;10.20;2.40;;;;;;;4.45;65.28;101728.47;105476;1271;22525;-60
2022/04/17 07:03:28;;;;;;;8.40;2.00;;;;;;;4.52;65.17;101721.65;106282;1271;22965;-59
2022/04/17 07:06:00;;;;;;;9.20;2.50;;;;;;;4.59;65.21;101721.23;105571;1271;23014;-59
2022/04/17 07:08:31;;;;;;;7.00;1.90;;;;;;;4.68;64.88;101725.44;105925;1271;24322;-60
2022/04/17 07:11:03;;;;;;;8.90;1.90;;;;;;;4.73;64.28;101729.29;105911;1271;23608;-59
2022/04/17 07:13:34;;;;;;;8.00;1.80;;;;;;;4.78;64.25;101724.83;105884;1272;24272;-59
2022/04/17 07:16:06;;;;;;;10.80;1.70;;;;;;;4.83;64.24;101722.92;105482;1271;22547;-60
2022/04/17 07:18:38;;;;;;;12.80;2.10;;;;;;;4.90;63.95;101726.66;105657;1272;23094;-59
2022/04/17 07:21:10;;;;;;;9.90;2.10;;;;;;;4.99;63.88;101726.05;105562;1272;22598;-58
2022/04/17 07:23:43;;;;;;;9.10;1.40;;;;;;;5.03;63.49;101726.27;105773;1271;22524;-58
2022/04/17 07:26:15;;;;;;;10.40;1.80;;;;;;;5.07;63.32;101726.64;105686;1271;24276;-61
2022/04/17 07:28:47;;;;;;;7.60;1.40;;;;;;;5.10;63.02;101723.30;105686;1271;22557;-60
2022/04/17 07:31:18;;;;;;;8.60;2.00;;;;;;;5.14;63.08;101715.98;105562;1271;25404;-60
2022/04/17 07:33:50;;;;;;;9.10;1.80;;;;;;;5.19;62.71;101713.34;105782;1271;22554;-60
2022/04/17 07:36:21;;;;;;;7.40;1.10;;;;;;;5.23;62.24;101709.44;105774;1271;25646;-59
2022/04/17 07:38:53;;;;;;;8.60;1.40;;;;;;;5.27;62.30;101708.52;105561;1271;22528;-58
2022/04/17 07:41:24;;;;;;;5.00;1.10;;;;;;;5.32;62.27;101706.03;105767;1271;24228;-59
2022/04/17 07:43:55;;;;;;;7.30;1.50;;;;;;;5.36;62.31;101701.34;105805;1272;22543;-60
2022/04/17 07:46:27;;;;;;;6.00;1.40;;;;;;;5.43;61.96;101699.77;105854;1271;24262;-58
2022/04/17 07:48:59;;;;;;;8.40;1.40;;;;;;;5.50;61.75;101694.34;105753;1272;24448;-62
2022/04/17 07:51:30;;;;;;;8.40;1.40;;;;;;;5.57;61.40;101692.68;105623;1271;23011;-60
2022/04/17 07:54:02;;;;;;;6.70;1.30;;;;;;;5.64;61.19;101695.30;105696;1271;22674;-58
2022/04/17 07:56:34;;;;;;;5.10;1.20;;;;;;;5.68;61.15;101693.84;105567;1271;22684;-61
2022/04/17 07:59:06;;;;;;;7.50;1.60;;;;;;;5.74;60.85;101694.52;105787;1271;24308;-60
2022/04/17 08:01:39;;;;;;;6.00;1.40;;;;;;;5.80;60.27;101691.27;105784;1271;24445;-61
2022/04/17 08:04:11;;;;;;;5.80;1.30;;;;;;;5.85;60.51;101688.55;105626;1271;22538;-62
2022/04/17 08:06:43;;;;;;;5.70;1.20;;;;;;;5.94;60.01;101682.45;105606;1272;24273;-63
2022/04/17 08:09:15;;;;;;;5.60;1.20;;;;;;;6.04;60.47;101676.08;105767;1271;22557;-60
2022/04/17 08:11:51;;;;;;;6.30;1.10;;;;;;;6.13;59.68;101671.55;105705;1271;25376;-60
2022/04/17 08:14:24;;;;;;;7.60;1.20;;;;;;;6.21;59.86;101675.33;105756;1271;22788;-59
2022/04/17 08:16:55;;;;;;;7.40;1.30;;;;;;;6.28;59.77;101676.98;106095;1270;24305;-57
2022/04/17 08:19:29;;;;;;;5.10;1.10;;;;;;;6.36;59.77;101676.56;106033;1271;24367;-61
2022/04/17 08:22:01;;;;;;;6.70;1.20;;;;;;;6.44;59.81;101677.24;105926;1271;25483;-59
2022/04/17 08:24:33;;;;;;;5.60;1.00;;;;;;;6.52;58.64;101672.69;105862;1271;25403;-61
2022/04/17 08:27:05;;;;;;;7.70;1.00;;;;;;;6.57;57.93;101676.67;105706;1271;24281;-60
2022/04/17 08:29:36;;;;;;;4.00;0.90;;;;;;;6.60;57.63;101672.11;105581;1271;22549;-58
2022/04/17 08:32:09;;;;;;;6.70;1.10;;;;;;;6.63;57.75;101673.19;105601;1271;22585;-59
2022/04/17 08:34:41;;;;;;;6.10;1.10;;;;;;;6.67;57.87;101667.58;105693;1271;24333;-58
2022/04/17 08:37:12;;;;;;;7.20;1.30;;;;;;;6.74;57.50;101664.38;105728;1271;24555;-59
2022/04/17 08:39:44;;;;;;;7.40;1.40;;;;;;;6.79;57.53;101665.34;105627;1271;26615;-58
2022/04/17 08:42:15;;;;;;;7.00;1.20;;;;;;;6.82;57.59;101653.40;105407;1271;22559;-59
2022/04/17 08:44:46;;;;;;;7.30;0.90;;;;;;;6.84;56.87;101646.80;105661;1271;22611;-59
2022/04/17 08:47:18;;;;;;;6.60;1.10;;;;;;;6.92;57.14;101645.16;105680;1271;24235;-58
2022/04/17 08:49:51;;;;;;;6.50;1.50;;;;;;;6.98;56.55;101642.45;105696;1271;24372;-59
2022/04/17 08:52:23;;;;;;;5.10;1.00;;;;;;;7.01;55.74;101640.89;105570;1271;24237;-58
2022/04/17 08:54:55;;;;;;;7.00;1.30;;;;;;;7.06;56.22;101645.96;105846;1271;22554;-59
2022/04/17 08:57:28;;;;;;;6.10;1.30;;;;;;;7.09;55.62;101639.91;105685;1271;22532;-59
2022/04/17 09:00:00;;;;;;;8.80;1.20;;;;;;;7.07;55.30;101634.30;107211;1271;22572;-60
2022/04/17 09:02:33;;;;;;;7.80;1.40;;;;;;;7.14;55.53;101637.11;105912;1271;22553;-60
2022/04/17 09:05:08;;;;;;;7.50;1.10;;;;;;;7.20;54.54;101634.56;105711;1271;24494;-59
2022/04/17 09:07:46;;;;;;;6.50;1.40;;;;;;;7.24;55.56;101628.61;106383;1271;22556;-59
2022/04/17 09:10:28;;;;;;;7.10;1.20;;;;;;;7.31;55.72;101631.34;105711;1271;22607;-59
2022/04/17 09:13:04;;;;;;;3.80;0.90;;;;;;;7.38;55.25;101624.97;105673;1271;22686;-62
2022/04/17 09:15:37;;;;;;;6.00;1.30;;;;;;;7.42;55.07;101615.83;105752;1271;25513;-58
2022/04/17 09:18:11;;;;;;;7.90;1.50;;;;;;;7.44;54.74;101616.44;105530;1271;24237;-59
2022/04/17 09:20:47;;;;;;;6.60;1.20;;;;;;;7.51;55.09;101613.13;105558;1271;22557;-58
2022/04/17 09:23:36;;;;;;;6.80;0.90;;;;;;;7.54;54.65;101608.86;105557;1271;24442;-59
2022/04/17 09:26:09;;;;;;;6.10;1.30;;;;;;;7.57;54.31;101606.67;105506;1271;22624;-60
2022/04/17 09:28:45;;;;;;;6.50;1.40;;;;;;;7.60;53.77;101602.48;105718;1271;22615;-60
2022/04/17 09:31:16;;;;;;;7.30;1.40;;;;;;;7.57;53.48;101595.39;105665;1271;22565;-60
2022/04/17 09:33:50;;;;;;;7.40;1.60;;;;;;;7.56;54.21;101586.60;105672;1271;24330;-60
2022/04/17 09:36:33;;;;;;;7.20;1.60;;;;;;;7.59;54.39;101583.52;105977;1271;22541;-62
2022/04/17 09:39:15;;;;;;;5.40;1.20;;;;;;;7.67;53.59;101583.98;105693;1271;25569;-62
2022/04/17 09:42:01;;;;;;;6.00;1.10;;;;;;;7.74;53.02;101575.20;105756;1271;25319;-61
2022/04/17 09:44:55;;;;;;;5.50;1.20;;;;;;;7.79;53.06;101569.77;105552;1271;24254;-61
2022/04/17 09:47:28;;;;;;;5.50;1.40;;;;;;;7.86;53.05;101571.45;105646;1271;24386;-61
2022/04/17 09:50:04;;;;;;;4.50;1.00;;;;;;;7.99;52.21;101565.64;105691;1271;24281;-62
2022/04/17 09:52:41;;;;;;;7.20;1.00;;;;;;;7.99;52.26;101557.05;105786;1271;25329;-61
2022/04/17 09:55:13;;;;;;;7.60;1.20;;;;;;;8.06;52.98;101550.23;105708;1271;22722;-61
2022/04/17 09:57:46;;;;;;;7.90;1.20;;;;;;;8.13;52.83;101551.41;105566;1271;22537;-61
2022/04/17 10:00:19;;;;;;;4.90;0.90;;;;;;;8.20;52.76;101550.55;105630;1271;24225;-63
2022/04/17 10:02:51;;;;;;;6.50;1.10;;;;;;;8.29;52.71;101548.09;105609;1271;25359;-63
2022/04/17 10:05:23;;;;;;;6.00;1.00;;;;;;;8.37;52.01;101545.04;105603;1271;22548;-61
2022/04/17 10:07:57;;;;;;;5.40;1.10;;;;;;;8.43;51.57;101551.81;105647;1271;22567;-61
2022/04/17 10:10:29;;;;;;;3.60;1.10;;;;;;;8.41;51.50;101538.64;105579;1271;22583;-61
2022/04/17 10:13:02;;;;;;;3.30;0.80;;;;;;;8.49;51.19;101543.55;105643;1270;23880;-60
2022/04/17 10:15:35;;;;;;;3.50;0.80;;;;;;;8.60;49.10;101542.88;105636;1271;25335;-62
2022/04/17 10:18:09;;;;;;;4.00;0.60;;;;;;;8.66;49.16;101539.64;105675;1271;22541;-61
2022/04/17 10:20:42;;;;;;;4.90;0.80;;;;;;;8.72;49.35;101530.98;105772;1271;22576;-61
2022/04/17 10:23:16;;;;;;;2.60;0.70;;;;;;;8.81;49.38;101529.09;105670;1271;25296;-62
2022/04/17 10:25:51;;;;;;;4.00;1.00;;;;;;;8.94;50.37;101537.02;105686;1271;22725;-61
2022/04/17 10:28:24;;;;;;;5.80;0.90;;;;;;;9.07;49.50;101531.30;105792;1271;22553;-61
2022/04/17 10:31:11;;;;;;;6.10;1.00;;;;;;;9.10;48.70;101534.00;105550;1271;22640;-61
2022/04/17 10:34:06;;;;;;;4.90;1.10;;;;;;;9.05;48.71;101525.77;105538;1274;25385;-62
2022/04/17 10:36:53;;;;;;;7.60;0.90;;;;;;;9.02;49.34;101521.23;105479;1271;24288;-62
2022/04/17 10:39:31;;;;;;;3.40;0.80;;;;;;;9.06;49.25;101519.45;105549;1271;22704;-61
2022/04/17 10:42:04;;;;;;;3.20;0.70;;;;;;;9.08;48.81;101508.04;105703;1271;22537;-62
2022/04/17 10:44:41;;;;;;;4.50;0.70;;;;;;;9.11;47.92;101501.73;105341;1272;336234;-62
2022/04/17 10:47:21;;;;;;;3.70;0.60;;;;;;;9.17;47.25;101504.50;105599;1271;22533;-61
2022/04/17 10:50:00;;;;;;;3.80;0.70;;;;;;;9.27;46.48;101501.23;105466;1271;22605;-61
2022/04/17 10:52:33;;;;;;;3.10;0.70;;;;;;;9.34;47.02;101493.05;105678;1271;24362;-62
2022/04/17 10:55:21;;;;;;;3.70;0.60;;;;;;;9.38;46.23;101490.55;105656;1271;22550;-62
2022/04/17 10:57:52;;;;;;;2.70;0.60;;;;;;;9.42;46.85;101488.13;105528;1271;22580;-62
2022/04/17 11:00:36;;;;;;;3.80;0.70;;;;;;;9.47;46.69;101489.41;105705;1271;22571;-62
2022/04/17 11:03:12;;;;;;;3.50;0.60;;;;;;;9.47;45.97;101486.23;105661;1271;22647;-62
2022/04/17 11:06:09;;;;;;;3.00;0.60;;;;;;;9.53;45.88;101483.20;105517;1271;22620;-62
2022/04/17 11:09:05;;;;;;;3.50;0.50;;;;;;;9.55;45.94;101479.63;105527;1271;24395;-62
2022/04/17 11:11:40;;;;;;;4.50;0.70;;;;;;;9.57;45.52;101469.22;105929;1271;22553;-63
2022/04/17 11:14:16;;;;;;;4.60;0.80;;;;;;;9.67;45.65;101469.80;105876;1271;22553;-63
2022/04/17 11:16:54;;;;;;;4.00;0.80;;;;;;;9.71;45.31;101465.70;105922;1271;24236;-62
2022/04/17 11:19:28;;;;;;;4.30;0.80;;;;;;;9.72;44.89;101461.90;105623;1271;25600;-61
2022/04/17 11:22:02;;;;;;;2.80;0.60;;;;;;;9.70;45.07;101459.19;105987;1271;24216;-62
2022/04/17 11:25:06;;;;;;;2.70;0.50;;;;;;;9.71;44.33;101463.86;105653;1271;24238;-62
2022/04/17 11:27:45;;;;;;;3.60;0.70;;;;;;;9.80;44.32;101455.00;105917;1271;24256;-62
2022/04/17 11:30:34;;;;;;;5.80;0.70;;;;;;;9.92;44.61;101447.85;106078;1271;23307;-62
2022/04/17 11:33:09;;;;;;;3.00;0.60;;;;;;;10.04;45.33;101449.06;105646;1271;22640;-62
2022/04/17 11:35:42;;;;;;;4.60;0.80;;;;;;;10.15;45.50;101444.34;105858;1271;22570;-63
2022/04/17 11:38:16;;;;;;;4.50;0.60;;;;;;;10.21;44.49;101439.61;105673;1271;22647;-62
2022/04/17 11:40:51;;;;;;;4.40;0.60;;;;;;;10.22;43.75;101437.34;105699;1271;22605;-62
2022/04/17 11:43:23;;;;;;;3.70;0.60;;;;;;;10.29;44.00;101436.98;105696;1271;22684;-62
2022/04/17 11:46:05;;;;;;;2.90;0.60;;;;;;;10.32;43.04;101432.73;105562;1271;22575;-62
2022/04/17 11:48:37;;;;;;;2.30;0.60;;;;;;;10.31;42.43;101426.70;105867;1271;25347;-63
2022/04/17 11:51:20;;;;;;;3.10;0.50;;;;;;;10.34;42.05;101418.37;105687;1271;22545;-65
2022/04/17 11:53:52;;;;;;;5.20;0.40;;;;;;;10.41;41.32;101416.95;105451;1271;22598;-62
2022/04/17 11:56:46;;;;;;;3.30;0.40;;;;;;;10.47;42.32;101411.64;105506;1271;24234;-62
2022/04/17 11:59:17;;;;;;;4.00;0.40;;;;;;;10.48;40.33;101414.55;105777;1271;22572;-62
2022/04/17 12:02:07;;;;;;;2.80;0.70;;;;;;;10.53;40.36;101408.79;105674;1271;22751;-63
2022/04/17 12:04:41;;;;;;;4.10;0.60;;;;;;;10.56;40.21;101407.11;105878;1271;25317;-62
2022/04/17 12:07:14;;;;;;;6.50;0.70;;;;;;;10.59;39.96;101404.84;105533;1271;25599;-62